sensor_id;sensor_type;location;lat;lon;timestamp;pressure;altitude;pressure_sealevel;temperature;humidity
13800;BME280;6971;50.028;9.258;2022-12-17T00:01:49;99864.56;;;-12.12;100.00
13800;BME280;6971;50.028;9.258;2022-12-17T00:07:08;99861.94;;;-12.14;100.00
13800;BME280;6971;50.028;9.258;2022-12-17T00:12:27;99866.19;;;-12.14;100.00
13800;BME280;6971;50.028;9.258;2022-12-17T00:17:47;99870.59;;;-12.10;100.00
13800;BME280;6971;50.028;9.258;2022-12-17T00:23:07;99871.34;;;-12.13;100.00
13800;BME280;6971;50.028;9.258;2022-12-17T00:28:27;99872.84;;;-12.16;100.00
13800;BME280;6971;50.028;9.258;2022-12-17T00:33:46;99873.50;;;-12.21;100.00
13800;BME280;6971;50.028;9.258;2022-12-17T00:39:05;99885.00;;;-12.29;100.00
13800;BME280;6971;50.028;9.258;2022-12-17T00:44:25;99890.06;;;-12.29;100.00
13800;BME280;6971;50.028;9.258;2022-12-17T00:49:44;99883.84;;;-12.36;100.00
13800;BME280;6971;50.028;9.258;2022-12-17T00:55:04;99885.69;;;-12.33;100.00
13800;BME280;6971;50.028;9.258;2022-12-17T01:00:23;99897.59;;;-12.32;100.00
13800;BME280;6971;50.028;9.258;2022-12-17T01:05:43;99903.47;;;-12.33;100.00
13800;BME280;6971;50.028;9.258;2022-12-17T01:11:05;99911.66;;;-12.39;100.00
13800;BME280;6971;50.028;9.258;2022-12-17T01:16:24;99911.59;;;-12.40;100.00
13800;BME280;6971;50.028;9.258;2022-12-17T01:21:44;99928.31;;;-12.46;100.00
13800;BME280;6971;50.028;9.258;2022-12-17T01:27:05;99933.31;;;-12.47;100.00
13800;BME280;6971;50.028;9.258;2022-12-17T01:32:24;99946.72;;;-12.50;100.00
13800;BME280;6971;50.028;9.258;2022-12-17T01:37:44;99952.63;;;-12.51;100.00
13800;BME280;6971;50.028;9.258;2022-12-17T01:43:07;99956.75;;;-12.53;100.00
13800;BME280;6971;50.028;9.258;2022-12-17T01:48:36;99960.09;;;-12.54;100.00
13800;BME280;6971;50.028;9.258;2022-12-17T01:53:59;99962.63;;;-12.54;100.00
13800;BME280;6971;50.028;9.258;2022-12-17T01:59:24;99978.66;;;-12.55;100.00
13800;BME280;6971;50.028;9.258;2022-12-17T02:04:47;99971.69;;;-12.59;100.00
13800;BME280;6971;50.028;9.258;2022-12-17T02:15:35;99985.03;;;-12.63;100.00
13800;BME280;6971;50.028;9.258;2022-12-17T02:20:56;99989.16;;;-12.65;100.00
13800;BME280;6971;50.028;9.258;2022-12-17T02:26:41;99990.84;;;-12.66;100.00
13800;BME280;6971;50.028;9.258;2022-12-17T02:32:03;99993.31;;;-12.67;100.00
13800;BME280;6971;50.028;9.258;2022-12-17T02:37:24;99981.41;;;-12.68;100.00
13800;BME280;6971;50.028;9.258;2022-12-17T02:42:43;99988.97;;;-12.70;100.00
13800;BME280;6971;50.028;9.258;2022-12-17T02:48:06;99982.78;;;-12.75;100.00
13800;BME280;6971;50.028;9.258;2022-12-17T02:53:25;99981.63;;;-12.82;100.00
13800;BME280;6971;50.028;9.258;2022-12-17T02:58:45;99993.44;;;-12.82;100.00
13800;BME280;6971;50.028;9.258;2022-12-17T03:04:04;99989.88;;;-12.86;100.00
13800;BME280;6971;50.028;9.258;2022-12-17T03:09:23;100006.03;;;-12.84;100.00
13800;BME280;6971;50.028;9.258;2022-12-17T03:14:42;100007.78;;;-12.83;100.00
13800;BME280;6971;50.028;9.258;2022-12-17T03:20:02;100003.50;;;-12.84;100.00
13800;BME280;6971;50.028;9.258;2022-12-17T03:25:22;100011.84;;;-12.87;100.00
13800;BME280;6971;50.028;9.258;2022-12-17T03:30:41;100015.91;;;-12.90;100.00
13800;BME280;6971;50.028;9.258;2022-12-17T03:36:00;100015.91;;;-12.90;100.00
13800;BME280;6971;50.028;9.258;2022-12-17T03:41:20;100016.75;;;-12.90;100.00
13800;BME280;6971;50.028;9.258;2022-12-17T03:46:39;100026.78;;;-12.93;100.00
13800;BME280;6971;50.028;9.258;2022-12-17T03:51:59;100024.88;;;-12.97;100.00
13800;BME280;6971;50.028;9.258;2022-12-17T03:57:18;100026.78;;;-12.93;100.00
13800;BME280;6971;50.028;9.258;2022-12-17T04:02:37;100031.53;;;-12.99;100.00
13800;BME280;6971;50.028;9.258;2022-12-17T04:07:57;100038.97;;;-13.02;100.00
13800;BME280;6971;50.028;9.258;2022-12-17T04:13:17;100037.50;;;-12.99;100.00
13800;BME280;6971;50.028;9.258;2022-12-17T04:18:36;100047.38;;;-13.03;100.00
13800;BME280;6971;50.028;9.258;2022-12-17T04:23:55;100044.06;;;-13.02;100.00
13800;BME280;6971;50.028;9.258;2022-12-17T04:29:15;100047.38;;;-13.03;100.00
13800;BME280;6971;50.028;9.258;2022-12-17T04:34:34;100055.56;;;-13.09;100.00
13800;BME280;6971;50.028;9.258;2022-12-17T04:39:53;100070.78;;;-13.09;100.00
13800;BME280;6971;50.028;9.258;2022-12-17T04:45:12;100076.19;;;-13.19;100.00
13800;BME280;6971;50.028;9.258;2022-12-17T04:50:32;100077.28;;;-13.14;100.00
13800;BME280;6971;50.028;9.258;2022-12-17T04:55:53;100085.63;;;-13.17;100.00
13800;BME280;6971;50.028;9.258;2022-12-17T05:01:13;100088.50;;;-13.11;100.00
13800;BME280;6971;50.028;9.258;2022-12-17T05:06:33;100085.72;;;-13.15;100.00
13800;BME280;6971;50.028;9.258;2022-12-17T05:11:52;100086.25;;;-13.21;100.00
13800;BME280;6971;50.028;9.258;2022-12-17T05:17:11;100100.53;;;-13.23;100.00
13800;BME280;6971;50.028;9.258;2022-12-17T05:22:31;100112.16;;;-13.27;100.00
13800;BME280;6971;50.028;9.258;2022-12-17T05:27:50;100103.78;;;-13.26;100.00
13800;BME280;6971;50.028;9.258;2022-12-17T05:33:10;100110.44;;;-13.28;100.00
13800;BME280;6971;50.028;9.258;2022-12-17T05:38:29;100109.63;;;-13.27;100.00
13800;BME280;6971;50.028;9.258;2022-12-17T05:43:48;100108.69;;;-13.29;100.00
13800;BME280;6971;50.028;9.258;2022-12-17T05:49:08;100113.44;;;-13.35;100.00
13800;BME280;6971;50.028;9.258;2022-12-17T05:54:27;100122.00;;;-13.33;100.00
13800;BME280;6971;50.028;9.258;2022-12-17T05:59:46;100121.91;;;-13.34;100.00
13800;BME280;6971;50.028;9.258;2022-12-17T06:05:09;100124.28;;;-13.38;100.00
13800;BME280;6971;50.028;9.258;2022-12-17T06:10:29;100124.28;;;-13.38;100.00
13800;BME280;6971;50.028;9.258;2022-12-17T06:15:49;100139.50;;;-13.38;100.00
13800;BME280;6971;50.028;9.258;2022-12-17T06:21:09;100154.72;;;-13.38;100.00
13800;BME280;6971;50.028;9.258;2022-12-17T06:26:28;100157.13;;;-13.41;100.00
13800;BME280;6971;50.028;9.258;2022-12-17T06:31:48;100163.94;;;-13.40;100.00
13800;BME280;6971;50.028;9.258;2022-12-17T06:37:07;100162.97;;;-13.42;100.00
13800;BME280;6971;50.028;9.258;2022-12-17T06:42:26;100167.88;;;-13.45;100.00
13800;BME280;6971;50.028;9.258;2022-12-17T06:47:45;100173.69;;;-13.47;100.00
13800;BME280;6971;50.028;9.258;2022-12-17T06:53:06;100178.75;;;-13.47;100.00
13800;BME280;6971;50.028;9.258;2022-12-17T06:58:25;100181.22;;;-13.49;100.00
13800;BME280;6971;50.028;9.258;2022-12-17T07:03:45;100200.63;;;-13.49;100.00
13800;BME280;6971;50.028;9.258;2022-12-17T07:09:05;100209.03;;;-13.51;100.00
13800;BME280;6971;50.028;9.258;2022-12-17T07:14:24;100214.81;;;-13.53;100.00
13800;BME280;6971;50.028;9.258;2022-12-17T07:19:43;100222.41;;;-13.53;100.00
13800;BME280;6971;50.028;9.258;2022-12-17T07:25:03;100234.38;;;-13.51;100.00
13800;BME280;6971;50.028;9.258;2022-12-17T07:30:23;100245.50;;;-13.48;100.00
13800;BME280;6971;50.028;9.258;2022-12-17T07:35:42;100252.16;;;-13.51;100.00
13800;BME280;6971;50.028;9.258;2022-12-17T07:41:02;100253.59;;;-13.39;100.00
13800;BME280;6971;50.028;9.258;2022-12-17T07:46:20;100265.91;;;-13.30;100.00
13800;BME280;6971;50.028;9.258;2022-12-17T07:51:40;100291.56;;;-13.26;100.00
13800;BME280;6971;50.028;9.258;2022-12-17T07:56:59;100297.84;;;-13.19;100.00
13800;BME280;6971;50.028;9.258;2022-12-17T08:02:18;100304.28;;;-13.09;100.00
13800;BME280;6971;50.028;9.258;2022-12-17T08:07:38;100314.09;;;-13.00;100.00
13800;BME280;6971;50.028;9.258;2022-12-17T08:13:08;100307.78;;;-12.92;100.00
13800;BME280;6971;50.028;9.258;2022-12-17T08:18:29;100314.69;;;-12.89;100.00
13800;BME280;6971;50.028;9.258;2022-12-17T08:23:48;100317.31;;;-12.88;100.00
13800;BME280;6971;50.028;9.258;2022-12-17T08:29:08;100337.66;;;-12.71;100.00
13800;BME280;6971;50.028;9.258;2022-12-17T08:34:27;100343.09;;;-12.65;100.00
13800;BME280;6971;50.028;9.258;2022-12-17T08:39:46;100340.03;;;-12.42;100.00
13800;BME280;6971;50.028;9.258;2022-12-17T08:45:06;100350.63;;;-12.18;100.00
13800;BME280;6971;50.028;9.258;2022-12-17T08:50:25;100357.03;;;-11.91;100.00
13800;BME280;6971;50.028;9.258;2022-12-17T08:55:45;100361.16;;;-11.60;100.00
13800;BME280;6971;50.028;9.258;2022-12-17T09:01:05;100363.16;;;-11.20;100.00
13800;BME280;6971;50.028;9.258;2022-12-17T09:06:38;100359.66;;;-11.04;100.00
13800;BME280;6971;50.028;9.258;2022-12-17T09:12:01;100362.88;;;-10.71;100.00
13800;BME280;6971;50.028;9.258;2022-12-17T09:17:20;100366.50;;;-10.48;100.00
13800;BME280;6971;50.028;9.258;2022-12-17T09:22:40;100373.28;;;-9.91;100.00
13800;BME280;6971;50.028;9.258;2022-12-17T09:28:01;100373.56;;;-9.65;100.00
13800;BME280;6971;50.028;9.258;2022-12-17T09:33:20;100383.31;;;-8.94;100.00
13800;BME280;6971;50.028;9.258;2022-12-17T09:38:39;100386.56;;;-7.59;100.00
13800;BME280;6971;50.028;9.258;2022-12-17T09:44:12;100388.34;;;-6.80;95.40
13800;BME280;6971;50.028;9.258;2022-12-17T09:49:34;100389.78;;;-6.04;92.57
13800;BME280;6971;50.028;9.258;2022-12-17T09:54:53;100388.78;;;-6.38;92.05
13800;BME280;6971;50.028;9.258;2022-12-17T10:00:21;100387.63;;;-6.19;91.73
13800;BME280;6971;50.028;9.258;2022-12-17T10:05:43;100384.72;;;-6.32;94.34
13800;BME280;6971;50.028;9.258;2022-12-17T10:16:43;100383.34;;;-5.25;89.86
13800;BME280;6971;50.028;9.258;2022-12-17T10:22:10;100387.81;;;-4.82;87.53
13800;BME280;6971;50.028;9.258;2022-12-17T10:27:30;100385.81;;;-4.19;87.71
13800;BME280;6971;50.028;9.258;2022-12-17T10:32:54;100383.47;;;-3.65;83.83
13800;BME280;6971;50.028;9.258;2022-12-17T10:43:40;100397.34;;;-5.14;88.51
13800;BME280;6971;50.028;9.258;2022-12-17T10:49:07;100395.09;;;-4.66;90.71
13800;BME280;6971;50.028;9.258;2022-12-17T10:54:30;100392.91;;;-4.09;88.88
13800;BME280;6971;50.028;9.258;2022-12-17T10:59:50;100392.72;;;-3.32;83.18
13800;BME280;6971;50.028;9.258;2022-12-17T11:05:13;100393.38;;;-4.27;86.14
13800;BME280;6971;50.028;9.258;2022-12-17T11:10:38;100391.16;;;-4.10;87.30
13800;BME280;6971;50.028;9.258;2022-12-17T11:16:01;100397.59;;;-2.98;84.75
13800;BME280;6971;50.028;9.258;2022-12-17T11:21:28;100398.31;;;-2.53;81.64
13800;BME280;6971;50.028;9.258;2022-12-17T11:26:52;100409.13;;;-2.76;82.91
13800;BME280;6971;50.028;9.258;2022-12-17T11:32:39;100400.63;;;-4.10;87.04
13800;BME280;6971;50.028;9.258;2022-12-17T11:49:47;100406.47;;;-4.54;92.28
13800;BME280;6971;50.028;9.258;2022-12-17T12:06:41;100403.34;;;-4.41;94.15
13800;BME280;6971;50.028;9.258;2022-12-17T12:17:42;100404.41;;;-4.33;91.76
13800;BME280;6971;50.028;9.258;2022-12-17T12:23:11;100407.34;;;-4.15;93.41
13800;BME280;6971;50.028;9.258;2022-12-17T12:28:52;100401.84;;;-3.91;92.30
13800;BME280;6971;50.028;9.258;2022-12-17T12:34:30;100409.44;;;-3.99;92.36
13800;BME280;6971;50.028;9.258;2022-12-17T12:51:17;100412.56;;;-3.72;91.35
13800;BME280;6971;50.028;9.258;2022-12-17T12:56:46;100410.91;;;-4.09;89.32
13800;BME280;6971;50.028;9.258;2022-12-17T13:02:31;100412.03;;;-3.97;89.71
13800;BME280;6971;50.028;9.258;2022-12-17T13:08:03;100408.81;;;-3.87;89.89
13800;BME280;6971;50.028;9.258;2022-12-17T13:13:28;100415.56;;;-3.92;89.37
13800;BME280;6971;50.028;9.258;2022-12-17T13:18:36;100415.63;;;-3.90;89.59
13800;BME280;6971;50.028;9.258;2022-12-17T13:23:39;100411.53;;;-3.36;87.77
13800;BME280;6971;50.028;9.258;2022-12-17T13:28:42;100414.31;;;-3.25;87.00
13800;BME280;6971;50.028;9.258;2022-12-17T13:34:11;100414.03;;;-2.91;85.12
13800;BME280;6971;50.028;9.258;2022-12-17T13:49:27;100421.91;;;-3.33;84.66
13800;BME280;6971;50.028;9.258;2022-12-17T13:54:29;100418.66;;;-3.22;85.31
13800;BME280;6971;50.028;9.258;2022-12-17T13:59:30;100417.56;;;-3.34;84.58
13800;BME280;6971;50.028;9.258;2022-12-17T14:04:31;100419.88;;;-3.49;86.71
13800;BME280;6971;50.028;9.258;2022-12-17T14:09:38;100429.38;;;-3.90;89.64
13800;BME280;6971;50.028;9.258;2022-12-17T14:14:42;100422.06;;;-4.10;91.16
13800;BME280;6971;50.028;9.258;2022-12-17T14:19:46;100420.22;;;-4.17;92.17
13800;BME280;6971;50.028;9.258;2022-12-17T14:24:48;100425.13;;;-4.26;92.75
13800;BME280;6971;50.028;9.258;2022-12-17T14:29:49;100432.38;;;-4.47;94.23
13800;BME280;6971;50.028;9.258;2022-12-17T14:34:49;100418.16;;;-4.69;96.35
13800;BME280;6971;50.028;9.258;2022-12-17T14:39:52;100416.81;;;-4.88;97.51
13800;BME280;6971;50.028;9.258;2022-12-17T14:45:32;100426.09;;;-4.95;99.13
13800;BME280;6971;50.028;9.258;2022-12-17T14:50:34;100418.81;;;-5.12;100.00
13800;BME280;6971;50.028;9.258;2022-12-17T14:55:38;100432.06;;;-5.30;100.00
13800;BME280;6971;50.028;9.258;2022-12-17T15:00:41;100435.00;;;-5.48;100.00
13800;BME280;6971;50.028;9.258;2022-12-17T15:05:49;100439.50;;;-5.70;100.00
13800;BME280;6971;50.028;9.258;2022-12-17T15:10:51;100443.47;;;-5.81;100.00
13800;BME280;6971;50.028;9.258;2022-12-17T15:15:52;100452.22;;;-6.05;100.00
13800;BME280;6971;50.028;9.258;2022-12-17T15:20:53;100467.88;;;-6.25;100.00
13800;BME280;6971;50.028;9.258;2022-12-17T15:25:54;100464.03;;;-6.38;100.00
13800;BME280;6971;50.028;9.258;2022-12-17T15:30:55;100474.31;;;-6.65;100.00
13800;BME280;6971;50.028;9.258;2022-12-17T15:35:57;100482.19;;;-6.85;100.00
13800;BME280;6971;50.028;9.258;2022-12-17T15:41:01;100481.75;;;-6.98;100.00
13800;BME280;6971;50.028;9.258;2022-12-17T15:46:22;100491.38;;;-7.16;100.00
13800;BME280;6971;50.028;9.258;2022-12-17T15:51:24;100482.22;;;-7.34;100.00
13800;BME280;6971;50.028;9.258;2022-12-17T15:56:26;100494.38;;;-7.53;100.00
13800;BME280;6971;50.028;9.258;2022-12-17T16:01:27;100500.75;;;-7.64;100.00
13800;BME280;6971;50.028;9.258;2022-12-17T16:06:28;100498.34;;;-7.84;100.00
13800;BME280;6971;50.028;9.258;2022-12-17T16:11:29;100496.97;;;-7.97;100.00
13800;BME280;6971;50.028;9.258;2022-12-17T16:16:30;100503.66;;;-8.23;100.00
13800;BME280;6971;50.028;9.258;2022-12-17T16:21:31;100503.28;;;-8.33;100.00
13800;BME280;6971;50.028;9.258;2022-12-17T16:26:32;100505.19;;;-8.48;100.00
13800;BME280;6971;50.028;9.258;2022-12-17T16:31:33;100510.78;;;-8.59;100.00
13800;BME280;6971;50.028;9.258;2022-12-17T16:36:34;100509.47;;;-8.70;100.00
13800;BME280;6971;50.028;9.258;2022-12-17T16:41:34;100510.88;;;-8.77;100.00
13800;BME280;6971;50.028;9.258;2022-12-17T16:46:40;100521.34;;;-8.92;100.00
13800;BME280;6971;50.028;9.258;2022-12-17T16:51:42;100521.81;;;-9.01;100.00
13800;BME280;6971;50.028;9.258;2022-12-17T16:56:44;100533.16;;;-9.14;100.00
13800;BME280;6971;50.028;9.258;2022-12-17T17:01:47;100529.47;;;-9.21;100.00
13800;BME280;6971;50.028;9.258;2022-12-17T17:06:54;100528.97;;;-9.33;100.00
13800;BME280;6971;50.028;9.258;2022-12-17T17:11:56;100532.63;;;-9.46;100.00
13800;BME280;6971;50.028;9.258;2022-12-17T17:16:58;100532.22;;;-9.55;100.00
13800;BME280;6971;50.028;9.258;2022-12-17T17:21:59;100543.75;;;-9.64;100.00
13800;BME280;6971;50.028;9.258;2022-12-17T17:27:00;100544.06;;;-9.76;100.00
13800;BME280;6971;50.028;9.258;2022-12-17T17:32:01;100548.72;;;-9.67;100.00
13800;BME280;6971;50.028;9.258;2022-12-17T17:37:02;100558.72;;;-9.90;100.00
13800;BME280;6971;50.028;9.258;2022-12-17T17:42:03;100556.91;;;-9.92;100.00
13800;BME280;6971;50.028;9.258;2022-12-17T17:47:04;100558.94;;;-10.03;100.00
13800;BME280;6971;50.028;9.258;2022-12-17T17:52:05;100551.44;;;-10.00;100.00
13800;BME280;6971;50.028;9.258;2022-12-17T17:57:06;100542.47;;;-10.10;100.00
13800;BME280;6971;50.028;9.258;2022-12-17T18:02:09;100552.06;;;-10.23;100.00
13800;BME280;6971;50.028;9.258;2022-12-17T18:07:10;100551.69;;;-10.30;100.00
13800;BME280;6971;50.028;9.258;2022-12-17T18:12:11;100565.81;;;-10.37;100.00
13800;BME280;6971;50.028;9.258;2022-12-17T18:17:30;100567.97;;;-10.46;100.00
13800;BME280;6971;50.028;9.258;2022-12-17T18:22:31;100568.53;;;-10.52;100.00
13800;BME280;6971;50.028;9.258;2022-12-17T18:27:31;100560.34;;;-10.63;100.00
13800;BME280;6971;50.028;9.258;2022-12-17T18:32:32;100576.50;;;-10.63;100.00
13800;BME280;6971;50.028;9.258;2022-12-17T18:37:33;100578.59;;;-10.72;100.00
13800;BME280;6971;50.028;9.258;2022-12-17T18:42:34;100583.22;;;-10.65;100.00
13800;BME280;6971;50.028;9.258;2022-12-17T18:48:07;100587.97;;;-10.71;100.00
13800;BME280;6971;50.028;9.258;2022-12-17T18:53:08;100593.63;;;-10.77;100.00
13800;BME280;6971;50.028;9.258;2022-12-17T18:58:09;100602.81;;;-10.80;100.00
13800;BME280;6971;50.028;9.258;2022-12-17T19:03:10;100604.25;;;-10.85;100.00
13800;BME280;6971;50.028;9.258;2022-12-17T19:08:11;100599.69;;;-10.91;100.00
13800;BME280;6971;50.028;9.258;2022-12-17T19:13:18;100600.13;;;-11.00;100.00
13800;BME280;6971;50.028;9.258;2022-12-17T19:18:19;100591.34;;;-11.05;100.00
13800;BME280;6971;50.028;9.258;2022-12-17T19:23:19;100593.66;;;-11.10;100.00
13800;BME280;6971;50.028;9.258;2022-12-17T19:28:21;100597.69;;;-11.14;100.00
13800;BME280;6971;50.028;9.258;2022-12-17T19:33:22;100601.22;;;-11.11;100.00
13800;BME280;6971;50.028;9.258;2022-12-17T19:38:22;100594.19;;;-11.16;100.00
13800;BME280;6971;50.028;9.258;2022-12-17T19:43:34;100595.00;;;-11.17;100.00
13800;BME280;6971;50.028;9.258;2022-12-17T19:48:36;100598.25;;;-11.19;100.00
13800;BME280;6971;50.028;9.258;2022-12-17T19:53:38;100595.28;;;-11.27;100.00
13800;BME280;6971;50.028;9.258;2022-12-17T19:58:40;100598.19;;;-11.21;100.00
13800;BME280;6971;50.028;9.258;2022-12-17T20:03:42;100597.19;;;-11.23;100.00
13800;BME280;6971;50.028;9.258;2022-12-17T20:08:43;100596.72;;;-11.32;100.00
13800;BME280;6971;50.028;9.258;2022-12-17T20:13:44;100595.16;;;-11.30;100.00
13800;BME280;6971;50.028;9.258;2022-12-17T20:18:45;100601.50;;;-11.38;100.00
13800;BME280;6971;50.028;9.258;2022-12-17T20:23:46;100594.47;;;-11.43;100.00
13800;BME280;6971;50.028;9.258;2022-12-17T20:28:47;100614.88;;;-11.26;100.00
13800;BME280;6971;50.028;9.258;2022-12-17T20:33:48;100630.13;;;-11.43;100.00
13800;BME280;6971;50.028;9.258;2022-12-17T20:38:49;100628.69;;;-11.37;100.00
13800;BME280;6971;50.028;9.258;2022-12-17T20:43:50;100625.03;;;-11.43;100.00
13800;BME280;6971;50.028;9.258;2022-12-17T20:49:10;100628.63;;;-11.54;100.00
13800;BME280;6971;50.028;9.258;2022-12-17T20:54:12;100645.84;;;-11.65;100.00
13800;BME280;6971;50.028;9.258;2022-12-17T20:59:15;100647.69;;;-11.62;100.00
13800;BME280;6971;50.028;9.258;2022-12-17T21:04:17;100646.75;;;-11.64;100.00
13800;BME280;6971;50.028;9.258;2022-12-17T21:09:18;100644.81;;;-11.69;100.00
13800;BME280;6971;50.028;9.258;2022-12-17T21:14:20;100649.38;;;-11.63;100.00
13800;BME280;6971;50.028;9.258;2022-12-17T21:19:21;100654.56;;;-11.61;100.00
13800;BME280;6971;50.028;9.258;2022-12-17T21:24:22;100650.59;;;-11.56;100.00
13800;BME280;6971;50.028;9.258;2022-12-17T21:29:23;100657.25;;;-11.58;100.00
13800;BME280;6971;50.028;9.258;2022-12-17T21:34:24;100659.38;;;-11.66;100.00
13800;BME280;6971;50.028;9.258;2022-12-17T21:39:28;100656.13;;;-11.63;100.00
13800;BME280;6971;50.028;9.258;2022-12-17T21:44:34;100660.88;;;-11.70;100.00
13800;BME280;6971;50.028;9.258;2022-12-17T21:49:35;100656.84;;;-11.66;100.00
13800;BME280;6971;50.028;9.258;2022-12-17T21:54:36;100662.09;;;-11.63;100.00
13800;BME280;6971;50.028;9.258;2022-12-17T21:59:39;100674.31;;;-11.72;100.00
13800;BME280;6971;50.028;9.258;2022-12-17T22:04:40;100675.78;;;-11.61;100.00
13800;BME280;6971;50.028;9.258;2022-12-17T22:09:41;100680.94;;;-11.59;100.00
13800;BME280;6971;50.028;9.258;2022-12-17T22:14:42;100674.41;;;-11.71;100.00
13800;BME280;6971;50.028;9.258;2022-12-17T22:19:42;100682.97;;;-11.69;100.00
13800;BME280;6971;50.028;9.258;2022-12-17T22:24:44;100697.63;;;-11.80;100.00
13800;BME280;6971;50.028;9.258;2022-12-17T22:29:45;100709.75;;;-11.75;100.00
13800;BME280;6971;50.028;9.258;2022-12-17T22:35:04;100708.59;;;-11.81;100.00
13800;BME280;6971;50.028;9.258;2022-12-17T22:40:06;100698.84;;;-11.73;100.00
13800;BME280;6971;50.028;9.258;2022-12-17T22:45:07;100686.13;;;-11.73;100.00
13800;BME280;6971;50.028;9.258;2022-12-17T22:50:08;100681.22;;;-11.70;100.00
13800;BME280;6971;50.028;9.258;2022-12-17T22:55:09;100682.09;;;-11.69;100.00
13800;BME280;6971;50.028;9.258;2022-12-17T23:00:15;100681.31;;;-11.53;100.00
13800;BME280;6971;50.028;9.258;2022-12-17T23:05:16;100682.53;;;-11.46;100.00
13800;BME280;6971;50.028;9.258;2022-12-17T23:10:21;100680.50;;;-11.52;100.00
13800;BME280;6971;50.028;9.258;2022-12-17T23:15:34;100685.59;;;-11.52;100.00
13800;BME280;6971;50.028;9.258;2022-12-17T23:20:35;100685.59;;;-11.52;100.00
13800;BME280;6971;50.028;9.258;2022-12-17T23:25:36;100686.47;;;-11.51;100.00
13800;BME280;6971;50.028;9.258;2022-12-17T23:30:37;100665.22;;;-11.37;100.00
13800;BME280;6971;50.028;9.258;2022-12-17T23:35:38;100660.84;;;-11.39;100.00
13800;BME280;6971;50.028;9.258;2022-12-17T23:40:44;100649.97;;;-11.20;100.00
13800;BME280;6971;50.028;9.258;2022-12-17T23:45:44;100656.75;;;-11.21;100.00
13800;BME280;6971;50.028;9.258;2022-12-17T23:50:45;100653.31;;;-11.21;100.00
13800;BME280;6971;50.028;9.258;2022-12-17T23:55:46;100656.78;;;-11.04;100.00
